createdAt,value
2022-09-26T00:01:28.562Z,77.21
2022-09-26T00:03:57.228Z,76.84
2022-09-26T00:06:24.498Z,77.21
2022-09-26T00:08:51.995Z,76.91
2022-09-26T00:11:21.032Z,76.95
2022-09-26T00:13:52.393Z,77.12
2022-09-26T00:16:19.625Z,77.11
2022-09-26T00:18:48.574Z,76.91
2022-09-26T00:21:15.735Z,76.96
2022-09-26T00:23:42.267Z,76.79
2022-09-26T00:26:09.941Z,76.66
2022-09-26T00:28:36.675Z,76.64
2022-09-26T00:31:05.978Z,76.51
2022-09-26T00:33:32.575Z,76.26
2022-09-26T00:35:59.688Z,76.64
2022-09-26T00:38:26.178Z,76.38
2022-09-26T00:40:52.995Z,76.29
2022-09-26T00:43:30.179Z,76.15
2022-09-26T00:46:01.679Z,76.00
2022-09-26T00:48:30.537Z,75.95
2022-09-26T00:50:57.798Z,75.96
2022-09-26T00:53:28.261Z,76.20
2022-09-26T00:55:58.671Z,76.63
2022-09-26T00:58:28.991Z,76.65
2022-09-26T01:00:56.921Z,76.86
2022-09-26T01:03:25.108Z,76.95
2022-09-26T01:05:53.703Z,76.90
2022-09-26T01:08:24.001Z,76.94
2022-09-26T01:10:50.746Z,77.23
2022-09-26T01:13:17.327Z,76.97
2022-09-26T01:15:43.802Z,76.91
2022-09-26T01:18:10.422Z,76.84
2022-09-26T01:20:50.304Z,76.94
2022-09-26T01:23:58.286Z,77.02
2022-09-26T01:27:04.609Z,77.71
2022-09-26T01:30:00.836Z,77.92
2022-09-26T01:32:45.338Z,77.82
2022-09-26T01:35:20.856Z,78.11
2022-09-26T01:37:59.303Z,78.21
2022-09-26T01:40:31.559Z,78.25
2022-09-26T01:43:05.606Z,78.66
2022-09-26T01:45:43.949Z,78.44
2022-09-26T01:48:14.364Z,78.41
2022-09-26T01:50:45.175Z,78.34
2022-09-26T01:53:18.332Z,78.51
2022-09-26T01:55:49.344Z,78.37
2022-09-26T01:58:21.331Z,78.51
2022-09-26T02:00:49.855Z,78.22
2022-09-26T02:03:21.723Z,78.39
2022-09-26T02:05:55.239Z,78.30
2022-09-26T02:08:24.362Z,78.17
2022-09-26T02:10:54.467Z,78.38
2022-09-26T02:13:27.795Z,78.22
2022-09-26T02:16:07.940Z,78.45
2022-09-26T02:18:40.633Z,78.36
2022-09-26T02:21:14.039Z,78.22
2022-09-26T02:23:40.561Z,78.24
2022-09-26T02:26:07.326Z,78.16
2022-09-26T02:28:33.902Z,78.18
2022-09-26T02:31:02.537Z,77.96
2022-09-26T02:33:29.905Z,78.24
2022-09-26T02:35:57.762Z,78.39
2022-09-26T02:38:26.894Z,78.34
2022-09-26T02:41:01.013Z,78.09
2022-09-26T02:43:47.513Z,78.13
2022-09-26T02:46:36.546Z,78.05
2022-09-26T02:49:15.774Z,77.73
2022-09-26T02:52:01.475Z,77.51
2022-09-26T02:54:40.321Z,77.49
2022-09-26T02:57:20.279Z,77.27
2022-09-26T02:59:55.969Z,77.03
2022-09-26T03:02:30.953Z,76.83
2022-09-26T03:05:02.120Z,76.77
2022-09-26T03:07:35.046Z,76.88
2022-09-26T03:10:05.660Z,76.41
2022-09-26T03:12:33.284Z,76.75
2022-09-26T03:15:04.655Z,76.57
2022-09-26T03:17:34.386Z,76.76
2022-09-26T03:20:05.655Z,76.44
2022-09-26T03:22:33.650Z,76.68
2022-09-26T03:25:00.410Z,77.22
2022-09-26T03:27:27.494Z,76.75
2022-09-26T03:29:54.077Z,76.21
2022-09-26T03:32:20.561Z,76.81
2022-09-26T03:34:47.077Z,76.49
2022-09-26T03:37:13.605Z,76.47
2022-09-26T03:39:41.371Z,76.43
2022-09-26T03:42:07.892Z,76.90
2022-09-26T03:44:34.391Z,76.45
2022-09-26T03:47:00.897Z,77.01
2022-09-26T03:49:27.410Z,76.53
2022-09-26T03:51:53.881Z,77.07
2022-09-26T03:54:20.361Z,76.66
2022-09-26T03:56:48.175Z,76.58
2022-09-26T03:59:14.897Z,76.69
2022-09-26T04:01:41.434Z,76.42
2022-09-26T04:04:07.940Z,76.04
2022-09-26T04:06:34.438Z,76.25
2022-09-26T04:09:01.024Z,76.41
2022-09-26T04:11:27.576Z,76.31
2022-09-26T04:13:55.469Z,76.11
2022-09-26T04:16:22.778Z,76.43
2022-09-26T04:18:50.068Z,76.27
2022-09-26T04:21:16.859Z,76.38
2022-09-26T04:23:44.305Z,76.73
2022-09-26T04:26:12.847Z,76.78
2022-09-26T04:28:40.301Z,77.17
2022-09-26T04:31:09.372Z,76.81
2022-09-26T04:33:35.964Z,77.40
2022-09-26T04:36:04.609Z,77.00
2022-09-26T04:38:31.269Z,77.09
2022-09-26T04:40:58.035Z,77.03
2022-09-26T04:43:24.635Z,77.18
2022-09-26T04:45:51.252Z,77.03
2022-09-26T04:48:19.304Z,76.96
2022-09-26T04:50:45.864Z,77.08
2022-09-26T04:53:12.400Z,77.29
2022-09-26T04:55:43.446Z,77.69
2022-09-26T04:58:09.968Z,77.10
2022-09-26T05:00:36.772Z,77.52
2022-09-26T05:03:03.368Z,77.39
2022-09-26T05:05:31.215Z,77.47
2022-09-26T05:07:57.839Z,77.56
2022-09-26T05:10:24.648Z,77.66
2022-09-26T05:12:51.253Z,77.74
2022-09-26T05:15:17.972Z,78.11
2022-09-26T05:17:44.509Z,78.63
2022-09-26T05:20:11.163Z,78.61
2022-09-26T05:22:39.034Z,78.14
2022-09-26T05:25:06.284Z,78.73
2022-09-26T05:27:32.887Z,78.33
2022-09-26T05:29:59.431Z,78.73
2022-09-26T05:32:25.904Z,78.88
2022-09-26T05:34:52.389Z,79.37
2022-09-26T05:37:18.944Z,79.79
2022-09-26T05:39:46.765Z,79.93
2022-09-26T05:42:13.260Z,80.09
2022-09-26T05:44:39.905Z,79.98
2022-09-26T05:47:06.553Z,80.75
2022-09-26T05:49:33.070Z,80.47
2022-09-26T05:51:59.534Z,80.49
2022-09-26T05:54:26.440Z,80.50
2022-09-26T05:56:54.353Z,80.20
2022-09-26T05:59:20.813Z,80.55
2022-09-26T06:01:47.434Z,80.81
2022-09-26T06:04:14.018Z,81.20
2022-09-26T06:06:40.542Z,81.40
2022-09-26T06:09:07.033Z,81.07
2022-09-26T06:11:33.718Z,81.79
2022-09-26T06:14:01.582Z,82.14
2022-09-26T06:16:28.815Z,82.19
2022-09-26T06:18:55.506Z,82.23
2022-09-26T06:21:22.157Z,82.24
2022-09-26T06:23:48.728Z,82.05
2022-09-26T06:26:19.596Z,81.95
2022-09-26T06:28:46.187Z,82.32
2022-09-26T06:31:15.944Z,82.09
2022-09-26T06:33:42.603Z,82.55
2022-09-26T06:36:11.150Z,82.20
2022-09-26T06:38:38.372Z,82.01
2022-09-26T06:41:05.902Z,82.30
2022-09-26T06:43:32.450Z,82.00
2022-09-26T06:45:58.976Z,82.13
2022-09-26T06:48:27.059Z,81.97
2022-09-26T06:50:55.518Z,81.82
2022-09-26T06:53:22.153Z,81.94
2022-09-26T06:55:49.347Z,82.10
2022-09-26T06:58:15.919Z,81.78
2022-09-26T07:00:42.667Z,81.57
2022-09-26T07:03:09.877Z,81.56
2022-09-26T07:05:37.744Z,81.29
2022-09-26T07:08:04.760Z,81.13
2022-09-26T07:10:31.293Z,80.77
2022-09-26T07:13:00.409Z,80.56
2022-09-26T07:15:26.871Z,80.49
2022-09-26T07:17:53.348Z,79.74
2022-09-26T07:20:20.395Z,79.15
2022-09-26T07:22:48.272Z,79.18
2022-09-26T07:25:14.858Z,78.44
2022-09-26T07:27:41.487Z,78.12
2022-09-26T07:30:09.236Z,77.93
2022-09-26T07:32:36.052Z,77.67
2022-09-26T07:35:03.370Z,76.72
2022-09-26T07:37:30.272Z,76.75
2022-09-26T07:40:01.454Z,76.84
2022-09-26T07:42:28.417Z,76.63
2022-09-26T07:45:24.641Z,76.72
2022-09-26T07:47:41.636Z,76.64
2022-09-26T07:50:08.516Z,76.78
2022-09-26T07:52:35.090Z,76.10
2022-09-26T07:55:03.387Z,75.91
2022-09-26T07:57:29.876Z,74.74
2022-09-26T07:59:56.567Z,73.90
2022-09-26T08:02:24.290Z,73.58
2022-09-26T08:04:50.968Z,72.22
2022-09-26T08:07:17.462Z,72.15
2022-09-26T08:09:43.961Z,72.23
2022-09-26T08:12:11.778Z,72.25
2022-09-26T08:14:38.292Z,71.44
2022-09-26T08:17:04.763Z,70.66
2022-09-26T08:19:31.331Z,70.10
2022-09-26T08:21:57.841Z,70.00
2022-09-26T08:24:24.489Z,68.91
2022-09-26T08:26:55.368Z,69.11
2022-09-26T08:29:23.451Z,68.83
2022-09-26T08:31:50.111Z,69.14
2022-09-26T08:34:19.277Z,68.15
2022-09-26T08:36:51.206Z,68.64
2022-09-26T08:39:17.812Z,67.67
2022-09-26T08:41:58.365Z,67.58
2022-09-26T08:44:37.332Z,68.04
2022-09-26T08:47:07.343Z,67.70
2022-09-26T08:49:58.643Z,67.48
2022-09-26T08:52:32.975Z,66.81
2022-09-26T08:55:05.097Z,66.57
2022-09-26T08:57:37.918Z,65.55
2022-09-26T09:00:15.443Z,66.44
2022-09-26T09:02:49.821Z,65.64
2022-09-26T09:05:20.664Z,65.37
2022-09-26T09:07:50.711Z,64.75
2022-09-26T09:10:19.323Z,65.03
2022-09-26T09:12:58.514Z,64.80
2022-09-26T09:15:38.089Z,62.83
2022-09-26T09:18:17.564Z,61.97
2022-09-26T09:20:56.360Z,61.24
2022-09-26T09:23:44.411Z,63.52
2022-09-26T09:29:39.555Z,62.12
2022-09-26T09:32:11.401Z,62.91
2022-09-26T09:34:41.252Z,61.37
2022-09-26T09:37:13.127Z,60.78
2022-09-26T09:39:42.958Z,59.92
2022-09-26T09:42:15.955Z,59.68
2022-09-26T09:44:47.284Z,60.07
2022-09-26T09:47:17.303Z,59.11
2022-09-26T09:49:46.604Z,58.71
2022-09-26T09:52:33.920Z,58.04
2022-09-26T09:55:13.255Z,57.78
2022-09-26T09:58:11.538Z,57.89
2022-09-26T10:00:41.806Z,57.21
2022-09-26T10:03:20.344Z,57.41
2022-09-26T10:05:48.609Z,58.48
2022-09-26T10:08:18.597Z,58.72
2022-09-26T10:10:54.276Z,58.00
2022-09-26T10:13:24.037Z,55.53
2022-09-26T10:15:58.786Z,57.08
2022-09-26T10:18:27.503Z,56.19
2022-09-26T10:20:56.709Z,56.30
2022-09-26T10:23:30.174Z,56.87
2022-09-26T10:25:59.165Z,56.92
2022-09-26T10:28:30.369Z,56.90
2022-09-26T10:31:03.761Z,55.23
2022-09-26T10:33:33.381Z,55.44
2022-09-26T10:36:01.840Z,55.98
2022-09-26T10:38:28.420Z,55.23
2022-09-26T10:40:57.482Z,56.12
2022-09-26T10:43:26.728Z,56.96
2022-09-26T10:45:56.266Z,55.89
2022-09-26T10:48:34.137Z,55.10
2022-09-26T10:51:02.547Z,55.99
2022-09-26T10:53:35.683Z,56.50
2022-09-26T10:56:08.321Z,56.44
2022-09-26T10:58:40.231Z,57.33
2022-09-26T11:01:07.502Z,55.83
2022-09-26T11:03:39.765Z,56.30
2022-09-26T11:06:23.903Z,55.83
2022-09-26T11:08:56.411Z,55.80
2022-09-26T11:11:24.254Z,54.27
2022-09-26T11:13:59.072Z,54.74
2022-09-26T11:16:25.675Z,54.77
2022-09-26T11:18:59.317Z,55.45
2022-09-26T11:21:36.384Z,55.18
2022-09-26T11:24:13.736Z,54.55
2022-09-26T11:26:48.193Z,54.39
2022-09-26T11:29:22.499Z,55.71
2022-09-26T11:31:49.232Z,54.98
2022-09-26T11:34:24.788Z,54.29
2022-09-26T11:37:12.210Z,55.21
2022-09-26T11:39:50.165Z,54.98
2022-09-26T11:42:29.156Z,54.78
2022-09-26T11:44:57.427Z,55.45
2022-09-26T11:47:56.048Z,55.57
2022-09-26T11:50:32.166Z,54.54
2022-09-26T11:53:14.321Z,55.03
2022-09-26T11:55:55.190Z,54.20
2022-09-26T11:58:32.606Z,53.49
2022-09-26T12:01:09.743Z,53.79
2022-09-26T12:04:04.197Z,53.50
2022-09-26T12:06:36.028Z,52.15
2022-09-26T12:09:18.147Z,53.79
2022-09-26T12:11:52.969Z,53.48
2022-09-26T12:14:37.116Z,53.99
2022-09-26T12:17:14.041Z,53.47
2022-09-26T12:19:49.004Z,54.39
2022-09-26T12:22:20.914Z,54.52
2022-09-26T12:24:57.874Z,54.75
2022-09-26T12:27:34.171Z,56.05
2022-09-26T12:30:06.484Z,53.74
2022-09-26T12:32:58.431Z,53.49
2022-09-26T12:35:43.228Z,53.58
2022-09-26T12:38:43.626Z,53.64
2022-09-26T12:41:30.408Z,53.15
2022-09-26T12:44:15.673Z,53.02
2022-09-26T12:47:04.345Z,53.92
2022-09-26T12:49:57.010Z,53.15
2022-09-26T12:52:39.566Z,52.94
2022-09-26T12:55:24.129Z,52.38
2022-09-26T12:58:04.318Z,53.01
2022-09-26T13:00:37.449Z,53.25
2022-09-26T13:03:22.361Z,53.23
2022-09-26T13:06:33.400Z,52.59
2022-09-26T13:09:16.035Z,53.31
2022-09-26T13:11:52.555Z,51.10
2022-09-26T13:14:42.685Z,52.11
2022-09-26T13:17:14.407Z,50.47
2022-09-26T13:19:44.876Z,50.46
2022-09-26T13:22:23.976Z,51.12
2022-09-26T13:24:56.239Z,49.27
2022-09-26T13:27:27.796Z,47.86
2022-09-26T13:30:03.166Z,49.22
2022-09-26T13:32:33.881Z,49.34
2022-09-26T13:35:10.142Z,49.48
2022-09-26T13:37:47.266Z,50.41
2022-09-26T13:40:34.363Z,49.10
2022-09-26T13:43:14.878Z,48.50
2022-09-26T13:45:53.910Z,48.89
2022-09-26T13:48:27.334Z,49.97
2022-09-26T13:50:56.626Z,51.26
2022-09-26T13:53:27.633Z,49.89
2022-09-26T13:56:29.833Z,49.61
2022-09-26T13:59:03.916Z,48.47
2022-09-26T14:01:31.756Z,49.87
2022-09-26T14:04:16.815Z,50.14
2022-09-26T14:07:12.867Z,50.32
2022-09-26T14:09:42.342Z,50.46
2022-09-26T14:12:21.640Z,50.14
2022-09-26T14:15:13.744Z,50.87
2022-09-26T14:18:13.427Z,49.98
2022-09-26T14:20:56.286Z,50.54
2022-09-26T14:23:38.700Z,50.35
2022-09-26T14:26:08.203Z,50.47
2022-09-26T14:28:36.009Z,50.69
2022-09-26T14:31:11.742Z,51.30
2022-09-26T14:33:40.477Z,52.68
2022-09-26T14:36:32.345Z,53.38
2022-09-26T14:38:59.351Z,51.88
2022-09-26T14:41:29.168Z,52.68
2022-09-26T14:44:01.596Z,51.97
2022-09-26T14:46:31.597Z,52.75
2022-09-26T14:49:02.801Z,51.82
2022-09-26T14:51:32.291Z,51.25
2022-09-26T14:54:03.086Z,51.01
2022-09-26T14:56:41.429Z,50.94
2022-09-26T14:59:37.921Z,50.33
2022-09-26T15:02:35.602Z,49.20
2022-09-26T15:05:12.404Z,49.01
2022-09-26T15:07:43.803Z,48.06
2022-09-26T15:10:20.887Z,49.65
2022-09-26T15:12:52.206Z,49.86
2022-09-26T15:15:32.437Z,49.61
2022-09-26T15:18:05.439Z,48.59
2022-09-26T15:20:38.559Z,49.71
2022-09-26T15:23:17.884Z,49.18
2022-09-26T15:25:44.907Z,50.11
2022-09-26T15:28:11.620Z,51.44
2022-09-26T15:30:38.199Z,50.68
2022-09-26T15:33:04.834Z,50.44
2022-09-26T15:35:33.636Z,51.75
2022-09-26T15:38:02.196Z,50.79
2022-09-26T15:40:30.722Z,51.50
2022-09-26T15:43:10.602Z,51.67
2022-09-26T15:45:55.640Z,51.68
2022-09-26T15:48:28.889Z,51.92
2022-09-26T15:51:02.185Z,52.26
2022-09-26T15:53:35.312Z,52.88
2022-09-26T15:56:06.682Z,52.81
2022-09-26T15:58:37.543Z,54.14
2022-09-26T16:01:04.880Z,53.87
2022-09-26T16:03:39.791Z,54.11
2022-09-26T16:06:28.820Z,54.18
2022-09-26T16:08:59.411Z,54.50
2022-09-26T16:11:27.279Z,54.86
2022-09-26T16:13:54.303Z,54.91
2022-09-26T16:16:26.570Z,55.56
2022-09-26T16:18:55.677Z,56.25
2022-09-26T16:21:25.728Z,56.29
2022-09-26T16:23:53.863Z,56.67
2022-09-26T16:26:28.303Z,57.43
2022-09-26T16:28:54.902Z,57.59
2022-09-26T16:31:28.011Z,57.10
2022-09-26T16:33:56.075Z,57.57
2022-09-26T16:36:26.959Z,58.50
2022-09-26T16:38:56.350Z,59.02
2022-09-26T16:42:01.149Z,58.89
2022-09-26T16:44:28.966Z,59.59
2022-09-26T16:46:58.297Z,59.91
2022-09-26T16:49:30.933Z,59.90
2022-09-26T16:52:26.678Z,60.13
2022-09-26T16:54:53.714Z,60.67
2022-09-26T16:57:24.281Z,60.76
2022-09-26T16:59:52.163Z,60.96
2022-09-26T17:02:18.977Z,61.63
2022-09-26T17:04:45.785Z,60.98
2022-09-26T17:07:14.930Z,61.73
2022-09-26T17:09:42.707Z,61.70
2022-09-26T17:12:16.441Z,62.40
2022-09-26T17:14:45.958Z,62.44
2022-09-26T17:17:14.960Z,61.66
2022-09-26T17:19:45.127Z,62.93
2022-09-26T17:22:15.421Z,62.68
2022-09-26T17:24:42.357Z,63.08
2022-09-26T17:27:15.035Z,62.86
2022-09-26T17:29:45.040Z,62.29
2022-09-26T17:32:15.530Z,63.19
2022-09-26T17:34:42.171Z,63.28
2022-09-26T17:37:11.970Z,62.54
2022-09-26T17:39:39.928Z,63.06
2022-09-26T17:42:06.570Z,62.77
2022-09-26T17:44:33.168Z,63.02
2022-09-26T17:46:59.908Z,63.87
2022-09-26T17:49:30.408Z,64.33
2022-09-26T17:51:59.040Z,64.45
2022-09-26T17:54:29.608Z,64.05
2022-09-26T17:56:58.148Z,64.09
2022-09-26T17:59:25.762Z,64.21
2022-09-26T18:01:55.220Z,64.26
2022-09-26T18:04:25.035Z,63.99
2022-09-26T18:06:51.706Z,63.85
2022-09-26T18:09:19.601Z,63.74
2022-09-26T18:11:53.711Z,63.15
2022-09-26T18:14:22.038Z,63.26
2022-09-26T18:16:48.605Z,63.08
2022-09-26T18:19:15.594Z,62.65
2022-09-26T18:21:42.381Z,62.69
2022-09-26T18:24:19.264Z,62.61
2022-09-26T18:26:48.347Z,62.98
2022-09-26T18:29:22.678Z,62.62
2022-09-26T18:31:50.718Z,62.84
2022-09-26T18:34:17.667Z,62.88
2022-09-26T18:36:44.702Z,62.98
2022-09-26T18:39:11.541Z,63.38
2022-09-26T18:41:38.846Z,63.49
2022-09-26T18:44:06.386Z,62.96
2022-09-26T18:46:33.566Z,63.01
2022-09-26T18:49:01.630Z,63.26
2022-09-26T18:51:28.444Z,63.66
2022-09-26T18:53:55.298Z,63.33
2022-09-26T18:56:21.841Z,63.21
2022-09-26T18:58:48.468Z,63.65
2022-09-26T19:01:20.106Z,63.40
2022-09-26T19:03:47.671Z,63.52
2022-09-26T19:06:19.230Z,63.74
2022-09-26T19:08:48.108Z,63.49
2022-09-26T19:11:16.860Z,63.77
2022-09-26T19:13:45.517Z,64.33
2022-09-26T19:16:12.591Z,64.06
2022-09-26T19:18:39.670Z,63.81
2022-09-26T19:21:13.706Z,64.26
2022-09-26T19:23:42.023Z,64.13
2022-09-26T19:26:17.305Z,64.22
2022-09-26T19:28:43.873Z,64.01
2022-09-26T19:31:10.575Z,64.25
2022-09-26T19:33:41.392Z,64.30
2022-09-26T19:36:09.950Z,64.24
2022-09-26T19:38:36.532Z,64.02
2022-09-26T19:41:04.784Z,64.51
2022-09-26T19:43:31.366Z,64.32
2022-09-26T19:45:58.034Z,64.36
2022-09-26T19:48:24.698Z,64.16
2022-09-26T19:50:52.022Z,64.13
2022-09-26T19:53:20.649Z,64.70
2022-09-26T19:55:48.351Z,64.45
2022-09-26T19:58:17.653Z,65.05
2022-09-26T20:00:44.742Z,65.02
2022-09-26T20:03:16.829Z,64.86
2022-09-26T20:05:44.323Z,65.49
2022-09-26T20:08:20.264Z,65.00
2022-09-26T20:10:46.900Z,65.11
2022-09-26T20:13:13.666Z,65.15
2022-09-26T20:15:41.961Z,64.86
2022-09-26T20:18:13.404Z,65.35
2022-09-26T20:20:40.172Z,65.56
2022-09-26T20:23:17.510Z,65.73
2022-09-26T20:25:44.126Z,66.14
2022-09-26T20:28:12.551Z,65.21
2022-09-26T20:30:39.150Z,65.94
2022-09-26T20:33:08.426Z,65.95
2022-09-26T20:35:37.102Z,65.79
2022-09-26T20:38:07.518Z,66.17
2022-09-26T20:40:35.070Z,66.11
2022-09-26T20:43:03.036Z,65.74
2022-09-26T20:45:32.847Z,66.18
2022-09-26T20:48:00.109Z,65.84
2022-09-26T20:50:33.845Z,65.73
2022-09-26T20:53:01.003Z,65.65
2022-09-26T20:55:27.559Z,65.66
2022-09-26T20:57:54.131Z,65.96
2022-09-26T21:00:21.050Z,65.88
2022-09-26T21:02:50.639Z,65.96
2022-09-26T21:05:19.463Z,66.38
2022-09-26T21:07:47.398Z,66.28
2022-09-26T21:10:22.519Z,66.23
2022-09-26T21:12:50.289Z,66.28
2022-09-26T21:15:17.108Z,65.81
2022-09-26T21:17:45.263Z,66.23
2022-09-26T21:20:15.281Z,66.15
2022-09-26T21:22:42.635Z,66.32
2022-09-26T21:25:16.460Z,66.25
2022-09-26T21:27:43.741Z,66.34
2022-09-26T21:30:13.385Z,66.52
2022-09-26T21:32:44.023Z,66.65
2022-09-26T21:35:10.854Z,66.15
2022-09-26T21:37:37.399Z,66.72
2022-09-26T21:40:04.407Z,66.44
2022-09-26T21:42:32.612Z,66.73
2022-09-26T21:45:02.843Z,66.69
2022-09-26T21:47:29.524Z,66.76
2022-09-26T21:49:56.190Z,67.50
2022-09-26T21:52:27.830Z,66.83
2022-09-26T21:54:58.073Z,66.94
2022-09-26T21:57:28.677Z,67.09
2022-09-26T21:59:58.252Z,67.21
2022-09-26T22:02:25.087Z,67.39
2022-09-26T22:04:51.634Z,67.28
2022-09-26T22:07:18.174Z,67.52
2022-09-26T22:09:44.830Z,67.29
2022-09-26T22:12:11.388Z,67.29
2022-09-26T22:14:37.955Z,67.53
2022-09-26T22:17:06.019Z,67.66
2022-09-26T22:19:32.783Z,67.79
2022-09-26T22:21:59.407Z,67.92
2022-09-26T22:24:26.079Z,68.37
2022-09-26T22:26:52.731Z,67.80
2022-09-26T22:29:19.451Z,68.30
2022-09-26T22:31:45.985Z,68.15
2022-09-26T22:34:14.106Z,68.18
2022-09-26T22:36:40.656Z,68.31
2022-09-26T22:39:07.220Z,68.15
2022-09-26T22:41:33.756Z,68.49
2022-09-26T22:44:00.540Z,68.28
2022-09-26T22:46:27.132Z,68.30
2022-09-26T22:48:53.787Z,68.80
2022-09-26T22:51:21.719Z,68.59
2022-09-26T22:53:48.424Z,69.00
2022-09-26T22:56:15.209Z,68.51
2022-09-26T22:58:43.778Z,68.77
2022-09-26T23:01:12.640Z,68.70
2022-09-26T23:03:39.844Z,68.94
2022-09-26T23:06:07.187Z,69.12
2022-09-26T23:08:35.769Z,68.82
2022-09-26T23:11:03.214Z,68.93
2022-09-26T23:13:31.671Z,68.99
2022-09-26T23:16:03.506Z,69.40
2022-09-26T23:18:30.047Z,69.14
2022-09-26T23:20:56.661Z,69.12
2022-09-26T23:23:23.236Z,68.83
2022-09-26T23:25:51.173Z,69.41
2022-09-26T23:28:17.957Z,69.27
2022-09-26T23:30:44.641Z,69.54
2022-09-26T23:33:11.242Z,69.32
2022-09-26T23:35:38.065Z,69.92
2022-09-26T23:38:05.382Z,70.14
2022-09-26T23:40:32.503Z,69.70
2022-09-26T23:43:00.514Z,69.92
2022-09-26T23:45:27.066Z,69.92
2022-09-26T23:47:53.858Z,70.00
2022-09-26T23:50:21.155Z,69.90
2022-09-26T23:52:47.702Z,69.83
2022-09-26T23:55:14.489Z,69.78
2022-09-26T23:57:41.002Z,70.08
